sensor_id;sensor_type;location;lat;lon;timestamp;P1;durP1;ratioP1;P2;durP2;ratioP2
31728;SDS011;18309;43.658;1.312;2023-04-25T00:00:11;9.43;;;2.40;;
31728;SDS011;18309;43.658;1.312;2023-04-25T00:02:37;3.45;;;1.88;;
31728;SDS011;18309;43.658;1.312;2023-04-25T00:05:03;2.67;;;1.85;;
31728;SDS011;18309;43.658;1.312;2023-04-25T00:07:29;5.57;;;2.88;;
31728;SDS011;18309;43.658;1.312;2023-04-25T00:09:56;3.63;;;2.22;;
31728;SDS011;18309;43.658;1.312;2023-04-25T00:12:21;7.03;;;2.60;;
31728;SDS011;18309;43.658;1.312;2023-04-25T00:14:48;5.15;;;2.20;;
31728;SDS011;18309;43.658;1.312;2023-04-25T00:17:15;6.07;;;2.35;;
31728;SDS011;18309;43.658;1.312;2023-04-25T00:19:41;11.65;;;2.88;;
31728;SDS011;18309;43.658;1.312;2023-04-25T00:22:09;6.30;;;2.20;;
31728;SDS011;18309;43.658;1.312;2023-04-25T00:24:35;11.52;;;3.28;;
31728;SDS011;18309;43.658;1.312;2023-04-25T00:27:01;5.63;;;2.35;;
31728;SDS011;18309;43.658;1.312;2023-04-25T00:29:27;4.50;;;2.20;;
31728;SDS011;18309;43.658;1.312;2023-04-25T00:31:52;7.57;;;2.25;;
31728;SDS011;18309;43.658;1.312;2023-04-25T00:34:18;5.60;;;2.22;;
31728;SDS011;18309;43.658;1.312;2023-04-25T00:36:44;6.13;;;2.35;;
31728;SDS011;18309;43.658;1.312;2023-04-25T00:39:09;6.93;;;2.17;;
31728;SDS011;18309;43.658;1.312;2023-04-25T00:41:36;7.10;;;2.60;;
31728;SDS011;18309;43.658;1.312;2023-04-25T00:44:03;3.63;;;1.90;;
31728;SDS011;18309;43.658;1.312;2023-04-25T00:46:31;6.57;;;2.13;;
31728;SDS011;18309;43.658;1.312;2023-04-25T00:48:59;4.20;;;2.30;;
31728;SDS011;18309;43.658;1.312;2023-04-25T00:51:24;4.25;;;2.17;;
31728;SDS011;18309;43.658;1.312;2023-04-25T00:53:51;9.02;;;2.40;;
31728;SDS011;18309;43.658;1.312;2023-04-25T00:56:17;5.68;;;2.08;;
31728;SDS011;18309;43.658;1.312;2023-04-25T00:58:43;5.68;;;2.38;;
31728;SDS011;18309;43.658;1.312;2023-04-25T01:01:10;3.47;;;2.05;;
31728;SDS011;18309;43.658;1.312;2023-04-25T01:03:37;7.88;;;2.45;;
31728;SDS011;18309;43.658;1.312;2023-04-25T01:06:07;6.18;;;1.95;;
31728;SDS011;18309;43.658;1.312;2023-04-25T01:08:34;2.78;;;1.50;;
31728;SDS011;18309;43.658;1.312;2023-04-25T01:11:02;4.55;;;1.52;;
31728;SDS011;18309;43.658;1.312;2023-04-25T01:13:27;2.88;;;1.63;;
31728;SDS011;18309;43.658;1.312;2023-04-25T01:15:53;3.25;;;1.40;;
31728;SDS011;18309;43.658;1.312;2023-04-25T01:18:19;5.55;;;1.50;;
31728;SDS011;18309;43.658;1.312;2023-04-25T01:20:45;3.42;;;1.05;;
31728;SDS011;18309;43.658;1.312;2023-04-25T01:23:15;4.67;;;1.37;;
31728;SDS011;18309;43.658;1.312;2023-04-25T01:25:41;1.63;;;0.98;;
31728;SDS011;18309;43.658;1.312;2023-04-25T01:28:07;2.17;;;0.80;;
31728;SDS011;18309;43.658;1.312;2023-04-25T01:30:33;4.15;;;0.60;;
31728;SDS011;18309;43.658;1.312;2023-04-25T01:33:00;4.32;;;0.57;;
31728;SDS011;18309;43.658;1.312;2023-04-25T01:35:27;0.70;;;0.40;;
31728;SDS011;18309;43.658;1.312;2023-04-25T01:37:53;0.60;;;0.40;;
31728;SDS011;18309;43.658;1.312;2023-04-25T01:40:19;1.23;;;0.40;;
31728;SDS011;18309;43.658;1.312;2023-04-25T01:42:46;0.60;;;0.20;;
31728;SDS011;18309;43.658;1.312;2023-04-25T01:45:12;1.02;;;0.35;;
31728;SDS011;18309;43.658;1.312;2023-04-25T01:47:38;3.25;;;0.45;;
31728;SDS011;18309;43.658;1.312;2023-04-25T01:50:05;1.23;;;0.40;;
31728;SDS011;18309;43.658;1.312;2023-04-25T01:52:32;3.40;;;0.50;;
31728;SDS011;18309;43.658;1.312;2023-04-25T01:54:59;1.20;;;0.40;;
31728;SDS011;18309;43.658;1.312;2023-04-25T01:57:26;1.48;;;0.30;;
31728;SDS011;18309;43.658;1.312;2023-04-25T01:59:57;4.65;;;0.30;;
31728;SDS011;18309;43.658;1.312;2023-04-25T02:02:25;0.98;;;0.45;;
31728;SDS011;18309;43.658;1.312;2023-04-25T02:04:51;1.10;;;0.50;;
31728;SDS011;18309;43.658;1.312;2023-04-25T02:07:17;1.17;;;0.32;;
31728;SDS011;18309;43.658;1.312;2023-04-25T02:09:42;3.30;;;0.30;;
31728;SDS011;18309;43.658;1.312;2023-04-25T02:12:09;1.60;;;0.52;;
31728;SDS011;18309;43.658;1.312;2023-04-25T02:14:35;0.30;;;0.20;;
31728;SDS011;18309;43.658;1.312;2023-04-25T02:17:01;0.55;;;0.35;;
31728;SDS011;18309;43.658;1.312;2023-04-25T02:19:27;0.57;;;0.20;;
31728;SDS011;18309;43.658;1.312;2023-04-25T02:21:53;1.98;;;0.30;;
31728;SDS011;18309;43.658;1.312;2023-04-25T02:24:19;0.55;;;0.25;;
31728;SDS011;18309;43.658;1.312;2023-04-25T02:26:45;0.25;;;0.20;;
31728;SDS011;18309;43.658;1.312;2023-04-25T02:29:11;2.05;;;0.20;;
31728;SDS011;18309;43.658;1.312;2023-04-25T02:31:37;2.05;;;0.22;;
31728;SDS011;18309;43.658;1.312;2023-04-25T02:34:03;0.98;;;0.17;;
31728;SDS011;18309;43.658;1.312;2023-04-25T02:36:29;2.92;;;0.20;;
31728;SDS011;18309;43.658;1.312;2023-04-25T02:38:59;2.78;;;0.20;;
31728;SDS011;18309;43.658;1.312;2023-04-25T02:41:25;1.00;;;0.20;;
31728;SDS011;18309;43.658;1.312;2023-04-25T02:43:51;0.88;;;0.20;;
31728;SDS011;18309;43.658;1.312;2023-04-25T02:46:16;0.00;;;0.00;;
31728;SDS011;18309;43.658;1.312;2023-04-25T02:48:42;0.47;;;0.22;;
31728;SDS011;18309;43.658;1.312;2023-04-25T02:51:08;0.10;;;0.10;;
31728;SDS011;18309;43.658;1.312;2023-04-25T02:53:34;1.30;;;0.40;;
31728;SDS011;18309;43.658;1.312;2023-04-25T02:56:00;1.15;;;0.20;;
31728;SDS011;18309;43.658;1.312;2023-04-25T02:58:25;0.52;;;0.15;;
31728;SDS011;18309;43.658;1.312;2023-04-25T03:00:51;0.77;;;0.20;;
31728;SDS011;18309;43.658;1.312;2023-04-25T03:03:17;0.10;;;0.10;;
31728;SDS011;18309;43.658;1.312;2023-04-25T03:05:45;0.20;;;0.10;;
31728;SDS011;18309;43.658;1.312;2023-04-25T03:08:11;0.25;;;0.15;;
31728;SDS011;18309;43.658;1.312;2023-04-25T03:10:38;0.10;;;0.10;;
31728;SDS011;18309;43.658;1.312;2023-04-25T03:13:03;1.60;;;0.10;;
31728;SDS011;18309;43.658;1.312;2023-04-25T03:15:29;0.57;;;0.20;;
31728;SDS011;18309;43.658;1.312;2023-04-25T03:17:56;0.22;;;0.20;;
31728;SDS011;18309;43.658;1.312;2023-04-25T03:20:21;0.10;;;0.10;;
31728;SDS011;18309;43.658;1.312;2023-04-25T03:22:47;2.45;;;0.20;;
31728;SDS011;18309;43.658;1.312;2023-04-25T03:25:13;0.35;;;0.15;;
31728;SDS011;18309;43.658;1.312;2023-04-25T03:27:38;1.27;;;0.15;;
31728;SDS011;18309;43.658;1.312;2023-04-25T03:30:04;0.88;;;0.22;;
31728;SDS011;18309;43.658;1.312;2023-04-25T03:32:32;1.25;;;0.20;;
31728;SDS011;18309;43.658;1.312;2023-04-25T03:34:57;0.63;;;0.10;;
31728;SDS011;18309;43.658;1.312;2023-04-25T03:37:23;0.75;;;0.20;;
31728;SDS011;18309;43.658;1.312;2023-04-25T03:39:48;7.07;;;0.88;;
31728;SDS011;18309;43.658;1.312;2023-04-25T03:42:14;1.38;;;0.55;;
31728;SDS011;18309;43.658;1.312;2023-04-25T03:44:40;1.20;;;0.25;;
31728;SDS011;18309;43.658;1.312;2023-04-25T03:47:05;1.33;;;0.28;;
31728;SDS011;18309;43.658;1.312;2023-04-25T03:49:32;1.55;;;0.43;;
31728;SDS011;18309;43.658;1.312;2023-04-25T03:51:57;0.40;;;0.22;;
31728;SDS011;18309;43.658;1.312;2023-04-25T03:54:25;2.45;;;0.10;;
31728;SDS011;18309;43.658;1.312;2023-04-25T03:56:50;1.17;;;0.28;;
31728;SDS011;18309;43.658;1.312;2023-04-25T03:59:16;1.05;;;0.30;;
31728;SDS011;18309;43.658;1.312;2023-04-25T04:01:42;1.02;;;0.30;;
31728;SDS011;18309;43.658;1.312;2023-04-25T04:04:07;0.35;;;0.17;;
31728;SDS011;18309;43.658;1.312;2023-04-25T04:06:33;0.20;;;0.20;;
31728;SDS011;18309;43.658;1.312;2023-04-25T04:08:59;0.43;;;0.22;;
31728;SDS011;18309;43.658;1.312;2023-04-25T04:11:24;0.88;;;0.10;;
31728;SDS011;18309;43.658;1.312;2023-04-25T04:13:51;0.82;;;0.20;;
31728;SDS011;18309;43.658;1.312;2023-04-25T04:16:16;4.10;;;0.40;;
31728;SDS011;18309;43.658;1.312;2023-04-25T04:18:42;0.68;;;0.20;;
31728;SDS011;18309;43.658;1.312;2023-04-25T04:21:08;0.20;;;0.20;;
31728;SDS011;18309;43.658;1.312;2023-04-25T04:23:33;1.23;;;0.20;;
31728;SDS011;18309;43.658;1.312;2023-04-25T04:25:59;1.30;;;0.20;;
31728;SDS011;18309;43.658;1.312;2023-04-25T04:28:25;0.65;;;0.28;;
31728;SDS011;18309;43.658;1.312;2023-04-25T04:30:51;4.90;;;0.30;;
31728;SDS011;18309;43.658;1.312;2023-04-25T04:33:18;0.70;;;0.30;;
31728;SDS011;18309;43.658;1.312;2023-04-25T04:35:45;0.93;;;0.30;;
31728;SDS011;18309;43.658;1.312;2023-04-25T04:38:12;1.02;;;0.20;;
31728;SDS011;18309;43.658;1.312;2023-04-25T04:40:40;1.42;;;0.30;;
31728;SDS011;18309;43.658;1.312;2023-04-25T04:43:08;0.10;;;0.10;;
31728;SDS011;18309;43.658;1.312;2023-04-25T04:45:35;1.10;;;0.20;;
31728;SDS011;18309;43.658;1.312;2023-04-25T04:48:06;0.20;;;0.20;;
31728;SDS011;18309;43.658;1.312;2023-04-25T04:50:31;3.08;;;0.30;;
31728;SDS011;18309;43.658;1.312;2023-04-25T04:52:57;1.48;;;0.35;;
31728;SDS011;18309;43.658;1.312;2023-04-25T04:55:23;0.93;;;0.30;;
31728;SDS011;18309;43.658;1.312;2023-04-25T04:57:49;4.88;;;0.40;;
31728;SDS011;18309;43.658;1.312;2023-04-25T05:00:15;1.23;;;0.35;;
31728;SDS011;18309;43.658;1.312;2023-04-25T05:02:41;0.73;;;0.30;;
31728;SDS011;18309;43.658;1.312;2023-04-25T05:05:06;1.95;;;0.68;;
31728;SDS011;18309;43.658;1.312;2023-04-25T05:07:33;4.30;;;0.55;;
31728;SDS011;18309;43.658;1.312;2023-04-25T05:09:59;1.15;;;0.43;;
31728;SDS011;18309;43.658;1.312;2023-04-25T05:12:25;1.77;;;0.35;;
31728;SDS011;18309;43.658;1.312;2023-04-25T05:14:50;2.75;;;0.30;;
31728;SDS011;18309;43.658;1.312;2023-04-25T05:17:16;2.15;;;0.50;;
31728;SDS011;18309;43.658;1.312;2023-04-25T05:19:42;1.65;;;0.30;;
31728;SDS011;18309;43.658;1.312;2023-04-25T05:22:08;1.17;;;0.40;;
31728;SDS011;18309;43.658;1.312;2023-04-25T05:24:34;1.75;;;0.60;;
31728;SDS011;18309;43.658;1.312;2023-04-25T05:26:59;3.55;;;0.57;;
31728;SDS011;18309;43.658;1.312;2023-04-25T05:29:25;3.47;;;0.70;;
31728;SDS011;18309;43.658;1.312;2023-04-25T05:31:50;4.10;;;0.70;;
31728;SDS011;18309;43.658;1.312;2023-04-25T05:34:16;1.08;;;0.65;;
31728;SDS011;18309;43.658;1.312;2023-04-25T05:36:42;3.00;;;0.80;;
31728;SDS011;18309;43.658;1.312;2023-04-25T05:39:07;3.83;;;0.77;;
31728;SDS011;18309;43.658;1.312;2023-04-25T05:41:33;2.63;;;0.60;;
31728;SDS011;18309;43.658;1.312;2023-04-25T05:43:59;1.90;;;0.60;;
31728;SDS011;18309;43.658;1.312;2023-04-25T05:46:25;1.60;;;0.68;;
31728;SDS011;18309;43.658;1.312;2023-04-25T05:48:51;2.05;;;0.80;;
31728;SDS011;18309;43.658;1.312;2023-04-25T05:51:16;0.60;;;0.60;;
31728;SDS011;18309;43.658;1.312;2023-04-25T05:53:43;45.53;;;4.95;;
31728;SDS011;18309;43.658;1.312;2023-04-25T05:56:09;37.30;;;2.83;;
31728;SDS011;18309;43.658;1.312;2023-04-25T05:58:35;8.63;;;1.35;;
31728;SDS011;18309;43.658;1.312;2023-04-25T06:01:01;6.20;;;0.90;;
31728;SDS011;18309;43.658;1.312;2023-04-25T06:03:28;2.67;;;0.95;;
31728;SDS011;18309;43.658;1.312;2023-04-25T06:05:55;8.30;;;0.75;;
31728;SDS011;18309;43.658;1.312;2023-04-25T06:08:20;1.88;;;0.60;;
31728;SDS011;18309;43.658;1.312;2023-04-25T06:10:46;0.85;;;0.50;;
31728;SDS011;18309;43.658;1.312;2023-04-25T06:13:12;2.63;;;0.70;;
31728;SDS011;18309;43.658;1.312;2023-04-25T06:15:37;0.90;;;0.70;;
31728;SDS011;18309;43.658;1.312;2023-04-25T06:18:03;2.17;;;0.57;;
31728;SDS011;18309;43.658;1.312;2023-04-25T06:20:29;4.20;;;0.70;;
31728;SDS011;18309;43.658;1.312;2023-04-25T06:22:55;2.22;;;0.70;;
31728;SDS011;18309;43.658;1.312;2023-04-25T06:25:20;2.45;;;1.38;;
31728;SDS011;18309;43.658;1.312;2023-04-25T06:27:46;3.58;;;0.88;;
31728;SDS011;18309;43.658;1.312;2023-04-25T06:30:12;1.63;;;0.77;;
31728;SDS011;18309;43.658;1.312;2023-04-25T06:32:38;2.15;;;0.88;;
31728;SDS011;18309;43.658;1.312;2023-04-25T06:35:04;2.05;;;0.57;;
31728;SDS011;18309;43.658;1.312;2023-04-25T06:37:31;0.95;;;0.60;;
31728;SDS011;18309;43.658;1.312;2023-04-25T06:39:57;0.63;;;0.60;;
31728;SDS011;18309;43.658;1.312;2023-04-25T06:42:23;2.45;;;0.47;;
31728;SDS011;18309;43.658;1.312;2023-04-25T06:44:48;2.67;;;0.40;;
31728;SDS011;18309;43.658;1.312;2023-04-25T06:47:14;3.78;;;0.80;;
31728;SDS011;18309;43.658;1.312;2023-04-25T06:49:40;0.90;;;0.70;;
31728;SDS011;18309;43.658;1.312;2023-04-25T06:52:06;2.17;;;0.50;;
31728;SDS011;18309;43.658;1.312;2023-04-25T06:54:32;2.38;;;0.77;;
31728;SDS011;18309;43.658;1.312;2023-04-25T06:56:58;3.10;;;0.57;;
31728;SDS011;18309;43.658;1.312;2023-04-25T06:59:25;0.40;;;0.35;;
31728;SDS011;18309;43.658;1.312;2023-04-25T07:01:51;3.70;;;0.60;;
31728;SDS011;18309;43.658;1.312;2023-04-25T07:04:17;0.57;;;0.20;;
31728;SDS011;18309;43.658;1.312;2023-04-25T07:06:43;1.02;;;0.30;;
31728;SDS011;18309;43.658;1.312;2023-04-25T07:09:09;0.47;;;0.20;;
31728;SDS011;18309;43.658;1.312;2023-04-25T07:11:36;0.45;;;0.20;;
31728;SDS011;18309;43.658;1.312;2023-04-25T07:14:02;0.20;;;0.20;;
31728;SDS011;18309;43.658;1.312;2023-04-25T07:16:29;0.52;;;0.10;;
31728;SDS011;18309;43.658;1.312;2023-04-25T07:18:55;0.20;;;0.10;;
31728;SDS011;18309;43.658;1.312;2023-04-25T07:21:21;0.77;;;0.10;;
31728;SDS011;18309;43.658;1.312;2023-04-25T07:23:46;0.13;;;0.10;;
31728;SDS011;18309;43.658;1.312;2023-04-25T07:26:12;1.05;;;0.40;;
31728;SDS011;18309;43.658;1.312;2023-04-25T07:28:38;0.17;;;0.15;;
31728;SDS011;18309;43.658;1.312;2023-04-25T07:31:04;0.20;;;0.20;;
31728;SDS011;18309;43.658;1.312;2023-04-25T07:33:30;1.75;;;0.40;;
31728;SDS011;18309;43.658;1.312;2023-04-25T07:35:56;0.38;;;0.20;;
31728;SDS011;18309;43.658;1.312;2023-04-25T07:38:22;0.95;;;0.20;;
31728;SDS011;18309;43.658;1.312;2023-04-25T07:40:48;2.35;;;0.28;;
31728;SDS011;18309;43.658;1.312;2023-04-25T07:43:14;1.45;;;0.30;;
31728;SDS011;18309;43.658;1.312;2023-04-25T07:45:45;0.30;;;0.10;;
31728;SDS011;18309;43.658;1.312;2023-04-25T07:48:11;0.45;;;0.20;;
31728;SDS011;18309;43.658;1.312;2023-04-25T07:50:42;0.90;;;0.28;;
31728;SDS011;18309;43.658;1.312;2023-04-25T07:53:08;2.80;;;0.55;;
31728;SDS011;18309;43.658;1.312;2023-04-25T07:55:34;1.25;;;0.40;;
31728;SDS011;18309;43.658;1.312;2023-04-25T07:58:01;2.05;;;0.43;;
31728;SDS011;18309;43.658;1.312;2023-04-25T08:00:28;0.55;;;0.40;;
31728;SDS011;18309;43.658;1.312;2023-04-25T08:02:54;1.40;;;0.40;;
31728;SDS011;18309;43.658;1.312;2023-04-25T08:05:19;1.77;;;0.50;;
31728;SDS011;18309;43.658;1.312;2023-04-25T08:07:45;1.15;;;0.40;;
31728;SDS011;18309;43.658;1.312;2023-04-25T08:10:11;1.67;;;0.55;;
31728;SDS011;18309;43.658;1.312;2023-04-25T08:12:36;2.70;;;0.40;;
31728;SDS011;18309;43.658;1.312;2023-04-25T08:15:02;0.30;;;0.30;;
31728;SDS011;18309;43.658;1.312;2023-04-25T08:17:29;0.70;;;0.30;;
31728;SDS011;18309;43.658;1.312;2023-04-25T08:19:54;2.10;;;0.30;;
31728;SDS011;18309;43.658;1.312;2023-04-25T08:22:22;1.13;;;0.32;;
31728;SDS011;18309;43.658;1.312;2023-04-25T08:24:47;2.58;;;0.20;;
31728;SDS011;18309;43.658;1.312;2023-04-25T08:27:13;0.45;;;0.20;;
31728;SDS011;18309;43.658;1.312;2023-04-25T08:29:39;0.52;;;0.10;;
31728;SDS011;18309;43.658;1.312;2023-04-25T08:32:06;0.52;;;0.30;;
31728;SDS011;18309;43.658;1.312;2023-04-25T08:34:31;1.35;;;0.38;;
31728;SDS011;18309;43.658;1.312;2023-04-25T08:36:57;4.32;;;0.65;;
31728;SDS011;18309;43.658;1.312;2023-04-25T08:39:23;1.45;;;0.40;;
31728;SDS011;18309;43.658;1.312;2023-04-25T08:41:48;1.33;;;0.43;;
31728;SDS011;18309;43.658;1.312;2023-04-25T08:44:15;1.35;;;0.60;;
31728;SDS011;18309;43.658;1.312;2023-04-25T08:46:41;2.15;;;0.70;;
31728;SDS011;18309;43.658;1.312;2023-04-25T08:49:12;4.50;;;1.85;;
31728;SDS011;18309;43.658;1.312;2023-04-25T08:51:42;1.38;;;0.60;;
31728;SDS011;18309;43.658;1.312;2023-04-25T08:54:12;0.70;;;0.20;;
31728;SDS011;18309;43.658;1.312;2023-04-25T08:56:39;3.38;;;0.55;;
31728;SDS011;18309;43.658;1.312;2023-04-25T08:59:08;1.25;;;0.45;;
31728;SDS011;18309;43.658;1.312;2023-04-25T09:01:35;0.43;;;0.40;;
31728;SDS011;18309;43.658;1.312;2023-04-25T09:04:01;0.95;;;0.32;;
31728;SDS011;18309;43.658;1.312;2023-04-25T09:06:28;0.60;;;0.30;;
31728;SDS011;18309;43.658;1.312;2023-04-25T09:09:00;1.65;;;0.60;;
31728;SDS011;18309;43.658;1.312;2023-04-25T09:11:30;0.57;;;0.38;;
31728;SDS011;18309;43.658;1.312;2023-04-25T09:17:02;0.35;;;0.30;;
31728;SDS011;18309;43.658;1.312;2023-04-25T09:19:30;1.52;;;0.30;;
31728;SDS011;18309;43.658;1.312;2023-04-25T09:21:58;0.60;;;0.40;;
31728;SDS011;18309;43.658;1.312;2023-04-25T09:27:10;4.43;;;0.60;;
31728;SDS011;18309;43.658;1.312;2023-04-25T09:29:37;2.55;;;0.52;;
31728;SDS011;18309;43.658;1.312;2023-04-25T09:32:11;5.05;;;0.35;;
31728;SDS011;18309;43.658;1.312;2023-04-25T09:34:41;3.55;;;0.40;;
31728;SDS011;18309;43.658;1.312;2023-04-25T09:37:08;0.90;;;0.45;;
31728;SDS011;18309;43.658;1.312;2023-04-25T09:39:36;0.70;;;0.65;;
31728;SDS011;18309;43.658;1.312;2023-04-25T09:42:03;0.80;;;0.60;;
31728;SDS011;18309;43.658;1.312;2023-04-25T09:44:30;1.73;;;0.73;;
31728;SDS011;18309;43.658;1.312;2023-04-25T09:46:55;2.08;;;1.00;;
31728;SDS011;18309;43.658;1.312;2023-04-25T09:49:22;1.73;;;0.80;;
31728;SDS011;18309;43.658;1.312;2023-04-25T09:51:54;1.40;;;0.68;;
31728;SDS011;18309;43.658;1.312;2023-04-25T09:54:24;2.78;;;0.43;;
31728;SDS011;18309;43.658;1.312;2023-04-25T09:56:51;1.90;;;0.77;;
31728;SDS011;18309;43.658;1.312;2023-04-25T09:59:21;0.98;;;0.52;;
31728;SDS011;18309;43.658;1.312;2023-04-25T10:01:48;1.38;;;0.52;;
31728;SDS011;18309;43.658;1.312;2023-04-25T10:04:16;1.42;;;0.30;;
31728;SDS011;18309;43.658;1.312;2023-04-25T10:06:48;0.65;;;0.20;;
31728;SDS011;18309;43.658;1.312;2023-04-25T10:09:15;1.30;;;0.20;;
31728;SDS011;18309;43.658;1.312;2023-04-25T10:11:43;1.55;;;0.30;;
31728;SDS011;18309;43.658;1.312;2023-04-25T10:14:09;1.00;;;0.40;;
31728;SDS011;18309;43.658;1.312;2023-04-25T10:16:37;2.65;;;0.38;;
31728;SDS011;18309;43.658;1.312;2023-04-25T10:19:05;0.45;;;0.30;;
31728;SDS011;18309;43.658;1.312;2023-04-25T10:21:32;5.70;;;0.50;;
31728;SDS011;18309;43.658;1.312;2023-04-25T10:23:58;0.40;;;0.20;;
31728;SDS011;18309;43.658;1.312;2023-04-25T10:26:25;1.20;;;0.38;;
31728;SDS011;18309;43.658;1.312;2023-04-25T10:28:57;1.48;;;0.30;;
31728;SDS011;18309;43.658;1.312;2023-04-25T10:31:24;2.10;;;1.13;;
31728;SDS011;18309;43.658;1.312;2023-04-25T10:33:50;1.77;;;0.80;;
31728;SDS011;18309;43.658;1.312;2023-04-25T10:36:19;0.68;;;0.43;;
31728;SDS011;18309;43.658;1.312;2023-04-25T10:38:47;0.63;;;0.30;;
31728;SDS011;18309;43.658;1.312;2023-04-25T10:41:17;0.63;;;0.32;;
31728;SDS011;18309;43.658;1.312;2023-04-25T10:43:45;1.02;;;0.43;;
31728;SDS011;18309;43.658;1.312;2023-04-25T10:46:18;1.42;;;0.43;;
31728;SDS011;18309;43.658;1.312;2023-04-25T10:48:48;1.02;;;0.50;;
31728;SDS011;18309;43.658;1.312;2023-04-25T10:51:39;2.65;;;0.70;;
31728;SDS011;18309;43.658;1.312;2023-04-25T10:54:07;0.90;;;0.43;;
31728;SDS011;18309;43.658;1.312;2023-04-25T10:56:36;2.08;;;0.90;;
31728;SDS011;18309;43.658;1.312;2023-04-25T11:01:42;1.42;;;0.70;;
31728;SDS011;18309;43.658;1.312;2023-04-25T11:09:42;2.15;;;0.40;;
31728;SDS011;18309;43.658;1.312;2023-04-25T11:12:10;1.00;;;0.50;;
31728;SDS011;18309;43.658;1.312;2023-04-25T11:14:39;0.60;;;0.50;;
31728;SDS011;18309;43.658;1.312;2023-04-25T11:17:05;1.27;;;0.63;;
31728;SDS011;18309;43.658;1.312;2023-04-25T11:19:31;9.15;;;3.95;;
31728;SDS011;18309;43.658;1.312;2023-04-25T11:21:57;2.35;;;1.10;;
31728;SDS011;18309;43.658;1.312;2023-04-25T11:24:34;0.55;;;0.35;;
31728;SDS011;18309;43.658;1.312;2023-04-25T11:27:02;2.58;;;0.50;;
31728;SDS011;18309;43.658;1.312;2023-04-25T11:29:29;2.85;;;0.93;;
31728;SDS011;18309;43.658;1.312;2023-04-25T11:31:55;3.00;;;0.70;;
31728;SDS011;18309;43.658;1.312;2023-04-25T11:34:22;1.33;;;0.35;;
31728;SDS011;18309;43.658;1.312;2023-04-25T11:36:50;1.17;;;0.52;;
31728;SDS011;18309;43.658;1.312;2023-04-25T11:39:17;1.83;;;0.77;;
31728;SDS011;18309;43.658;1.312;2023-04-25T11:41:44;1.65;;;0.47;;
31728;SDS011;18309;43.658;1.312;2023-04-25T11:44:09;1.15;;;0.63;;
31728;SDS011;18309;43.658;1.312;2023-04-25T11:46:35;1.67;;;0.50;;
31728;SDS011;18309;43.658;1.312;2023-04-25T11:49:01;1.10;;;0.77;;
31728;SDS011;18309;43.658;1.312;2023-04-25T11:51:27;2.20;;;0.80;;
31728;SDS011;18309;43.658;1.312;2023-04-25T11:53:53;1.20;;;0.63;;
31728;SDS011;18309;43.658;1.312;2023-04-25T11:56:19;1.98;;;0.70;;
31728;SDS011;18309;43.658;1.312;2023-04-25T11:58:59;1.38;;;0.73;;
31728;SDS011;18309;43.658;1.312;2023-04-25T12:03:56;2.22;;;0.82;;
31728;SDS011;18309;43.658;1.312;2023-04-25T12:06:25;1.75;;;0.70;;
31728;SDS011;18309;43.658;1.312;2023-04-25T12:09:03;0.80;;;0.75;;
31728;SDS011;18309;43.658;1.312;2023-04-25T12:11:32;1.20;;;0.82;;
31728;SDS011;18309;43.658;1.312;2023-04-25T12:14:03;1.95;;;0.77;;
31728;SDS011;18309;43.658;1.312;2023-04-25T12:16:42;3.20;;;0.80;;
31728;SDS011;18309;43.658;1.312;2023-04-25T12:19:08;2.15;;;0.68;;
31728;SDS011;18309;43.658;1.312;2023-04-25T12:21:34;2.08;;;0.82;;
31728;SDS011;18309;43.658;1.312;2023-04-25T12:24:10;1.38;;;0.60;;
31728;SDS011;18309;43.658;1.312;2023-04-25T12:26:47;0.70;;;0.50;;
31728;SDS011;18309;43.658;1.312;2023-04-25T12:29:21;0.52;;;0.40;;
31728;SDS011;18309;43.658;1.312;2023-04-25T12:31:49;0.45;;;0.30;;
31728;SDS011;18309;43.658;1.312;2023-04-25T12:34:16;1.25;;;0.40;;
31728;SDS011;18309;43.658;1.312;2023-04-25T12:36:45;2.88;;;0.50;;
31728;SDS011;18309;43.658;1.312;2023-04-25T12:39:14;1.08;;;0.55;;
31728;SDS011;18309;43.658;1.312;2023-04-25T12:41:47;1.90;;;0.50;;
31728;SDS011;18309;43.658;1.312;2023-04-25T12:44:13;0.63;;;0.47;;
31728;SDS011;18309;43.658;1.312;2023-04-25T12:46:39;0.70;;;0.45;;
31728;SDS011;18309;43.658;1.312;2023-04-25T12:49:05;2.75;;;0.50;;
31728;SDS011;18309;43.658;1.312;2023-04-25T12:51:33;1.38;;;0.50;;
31728;SDS011;18309;43.658;1.312;2023-04-25T12:56:47;0.77;;;0.52;;
31728;SDS011;18309;43.658;1.312;2023-04-25T12:59:13;1.10;;;0.50;;
31728;SDS011;18309;43.658;1.312;2023-04-25T13:01:39;1.95;;;0.43;;
31728;SDS011;18309;43.658;1.312;2023-04-25T13:04:04;1.15;;;0.52;;
31728;SDS011;18309;43.658;1.312;2023-04-25T13:06:30;4.53;;;1.10;;
31728;SDS011;18309;43.658;1.312;2023-04-25T13:08:56;2.20;;;0.68;;
31728;SDS011;18309;43.658;1.312;2023-04-25T13:11:21;2.25;;;0.55;;
31728;SDS011;18309;43.658;1.312;2023-04-25T13:13:47;1.60;;;0.52;;
31728;SDS011;18309;43.658;1.312;2023-04-25T13:16:13;1.52;;;0.60;;
31728;SDS011;18309;43.658;1.312;2023-04-25T13:18:39;2.05;;;0.57;;
31728;SDS011;18309;43.658;1.312;2023-04-25T13:21:05;1.92;;;0.85;;
31728;SDS011;18309;43.658;1.312;2023-04-25T13:23:30;2.33;;;1.02;;
31728;SDS011;18309;43.658;1.312;2023-04-25T13:25:56;1.77;;;0.85;;
31728;SDS011;18309;43.658;1.312;2023-04-25T13:28:23;0.77;;;0.50;;
31728;SDS011;18309;43.658;1.312;2023-04-25T13:30:49;0.85;;;0.80;;
31728;SDS011;18309;43.658;1.312;2023-04-25T13:33:16;4.75;;;0.90;;
31728;SDS011;18309;43.658;1.312;2023-04-25T13:35:42;1.10;;;0.60;;
31728;SDS011;18309;43.658;1.312;2023-04-25T13:38:08;1.70;;;0.75;;
31728;SDS011;18309;43.658;1.312;2023-04-25T13:40:34;0.90;;;0.80;;
31728;SDS011;18309;43.658;1.312;2023-04-25T13:42:59;0.90;;;0.68;;
31728;SDS011;18309;43.658;1.312;2023-04-25T13:45:26;5.20;;;0.98;;
31728;SDS011;18309;43.658;1.312;2023-04-25T13:47:52;3.90;;;0.55;;
31728;SDS011;18309;43.658;1.312;2023-04-25T13:50:18;1.08;;;0.70;;
31728;SDS011;18309;43.658;1.312;2023-04-25T13:52:43;2.08;;;0.73;;
31728;SDS011;18309;43.658;1.312;2023-04-25T13:55:10;1.48;;;0.80;;
31728;SDS011;18309;43.658;1.312;2023-04-25T13:57:35;5.63;;;1.25;;
31728;SDS011;18309;43.658;1.312;2023-04-25T14:00:02;1.75;;;0.80;;
31728;SDS011;18309;43.658;1.312;2023-04-25T14:02:33;0.30;;;0.30;;
31728;SDS011;18309;43.658;1.312;2023-04-25T14:05:03;1.37;;;0.53;;
31728;SDS011;18309;43.658;1.312;2023-04-25T14:07:30;1.60;;;0.60;;
31728;SDS011;18309;43.658;1.312;2023-04-25T14:09:56;5.85;;;0.70;;
31728;SDS011;18309;43.658;1.312;2023-04-25T14:12:24;6.18;;;0.40;;
31728;SDS011;18309;43.658;1.312;2023-04-25T14:14:51;1.13;;;0.60;;
31728;SDS011;18309;43.658;1.312;2023-04-25T14:17:18;1.20;;;0.50;;
31728;SDS011;18309;43.658;1.312;2023-04-25T14:19:44;4.70;;;0.60;;
31728;SDS011;18309;43.658;1.312;2023-04-25T14:22:12;3.78;;;0.68;;
31728;SDS011;18309;43.658;1.312;2023-04-25T14:24:38;1.50;;;0.60;;
31728;SDS011;18309;43.658;1.312;2023-04-25T14:27:04;6.88;;;1.15;;
31728;SDS011;18309;43.658;1.312;2023-04-25T14:29:31;3.47;;;0.90;;
31728;SDS011;18309;43.658;1.312;2023-04-25T14:31:56;1.45;;;0.60;;
31728;SDS011;18309;43.658;1.312;2023-04-25T14:34:23;2.78;;;0.65;;
31728;SDS011;18309;43.658;1.312;2023-04-25T14:36:50;1.38;;;0.55;;
31728;SDS011;18309;43.658;1.312;2023-04-25T14:39:17;5.00;;;0.70;;
31728;SDS011;18309;43.658;1.312;2023-04-25T14:41:43;2.63;;;0.70;;
31728;SDS011;18309;43.658;1.312;2023-04-25T14:44:09;3.45;;;0.55;;
31728;SDS011;18309;43.658;1.312;2023-04-25T14:46:35;2.05;;;0.63;;
31728;SDS011;18309;43.658;1.312;2023-04-25T14:49:01;3.47;;;0.57;;
31728;SDS011;18309;43.658;1.312;2023-04-25T14:51:28;1.38;;;0.40;;
31728;SDS011;18309;43.658;1.312;2023-04-25T14:53:53;1.08;;;0.45;;
31728;SDS011;18309;43.658;1.312;2023-04-25T14:56:19;2.00;;;0.82;;
31728;SDS011;18309;43.658;1.312;2023-04-25T14:58:45;2.22;;;1.30;;
31728;SDS011;18309;43.658;1.312;2023-04-25T15:01:11;4.45;;;1.00;;
31728;SDS011;18309;43.658;1.312;2023-04-25T15:03:38;0.90;;;0.50;;